»·PEaware :: WAT202 KLAS-KRNO

WAT202 :: KLAS-KRNO

FLIGHT INFORMATION

Flight Status: Arrived
Operator:
Walker Air Transport
More flights by this operator :: More flights under this callsign
Pilot: Nick L. (7253)
Aircraft: AIRBUS A319
(A319)
More flights by this aircraft type
Origin: KLAS Harry Reid Intl
United States
Destination: KRNO Reno/Tahoe Intl
United States
More flights between these airports :: More routes between these airports
Route: JOHKR1 KENNO RUSME2
File this flight plan on PilotEdge
Remarks: RMK / SIMBRIEF
Altitude:
(Current/Filed)
36,000ft
Speed:
(Current/Filed)
430kts
Departed: 01-Mar-21 06:14 PM
Arrived: 01-Mar-21 07:06 PM
Distance/Time
Traveled:
300nm/0:52
Distance/Time
To Go:
Arrived

Flight Plot

Page will automatically refresh every two minutes.

Flight plan parsing failed; only flown route is shown


Map Options




Map Legend


Flown Route
Filed Route
Departure Airport
Arrival Airport
Navaid (VOR, NDB)
Fix

Horizontal Profiles

Position Reports

Time Latitude Longitude Heading Altitude Ground
Speed
01-Mar-21 17:51 36.080254 -115.147288 56 2187ft 0kts
01-Mar-21 17:52 36.080254 -115.147288 56 2187ft 0kts
01-Mar-21 17:53 36.080254 -115.147288 56 2187ft 0kts
01-Mar-21 17:54 36.080254 -115.147288 56 2187ft 0kts
01-Mar-21 17:55 36.080254 -115.147288 56 2187ft 0kts
01-Mar-21 17:56 36.080254 -115.147288 56 2187ft 0kts
01-Mar-21 17:56 36.080254 -115.147288 56 2187ft 0kts
01-Mar-21 17:57 36.080254 -115.147288 56 2187ft 0kts
01-Mar-21 17:59 36.080254 -115.147288 56 2187ft 0kts
01-Mar-21 18:00 36.080254 -115.147288 56 2187ft 0kts
01-Mar-21 18:01 36.080254 -115.147288 56 2187ft 0kts
01-Mar-21 18:01 36.080254 -115.147289 56 2187ft 0kts
01-Mar-21 18:02 36.080228 -115.147336 56 2187ft 2kts
01-Mar-21 18:03 36.080230 -115.148009 139 2187ft 2kts
01-Mar-21 18:04 36.080362 -115.148104 156 2187ft 0kts
01-Mar-21 18:05 36.080362 -115.148104 156 2187ft 0kts
01-Mar-21 18:06 36.079712 -115.147728 154 2187ft 6kts
01-Mar-21 18:07 36.078521 -115.145206 85 2187ft 12kts
01-Mar-21 18:08 36.078290 -115.140342 89 2187ft 15kts
01-Mar-21 18:09 36.078307 -115.134480 88 2187ft 18kts
01-Mar-21 18:10 36.078306 -115.127842 90 2187ft 19kts
01-Mar-21 18:11 36.077733 -115.121722 134 2187ft 6kts
01-Mar-21 18:12 36.077556 -115.121506 136 2187ft 0kts
01-Mar-21 18:13 36.076460 -115.126508 269 2187ft 87kts
01-Mar-21 18:14 36.076547 -115.176566 270 4063ft 160kts
01-Mar-21 18:15 36.071417 -115.241897 254 5771ft 228kts
01-Mar-21 18:16 36.012106 -115.285417 200 8264ft 283kts
01-Mar-21 18:17 35.940208 -115.328220 208 11243ft 311kts
01-Mar-21 18:18 35.885281 -115.417946 268 12679ft 390kts
01-Mar-21 18:19 35.888690 -115.556231 270 15493ft 412kts
01-Mar-21 18:20 35.891409 -115.700206 269 18088ft 427kts
01-Mar-21 18:21 35.894077 -115.848939 268 20337ft 442kts
01-Mar-21 18:22 35.936078 -115.990006 311 22383ft 468kts
01-Mar-21 18:23 36.029803 -116.104404 312 24007ft 482kts
01-Mar-21 18:24 36.124778 -116.221531 312 25916ft 481kts
01-Mar-21 18:25 36.219059 -116.338383 312 27684ft 480kts
01-Mar-21 18:26 36.313463 -116.454927 313 29307ft 479kts
01-Mar-21 18:27 36.409417 -116.568559 313 30775ft 478kts
01-Mar-21 18:28 36.506390 -116.681159 314 32112ft 478kts
01-Mar-21 18:29 36.604130 -116.792454 314 33333ft 477kts
01-Mar-21 18:30 36.702062 -116.903376 317 34444ft 477kts
01-Mar-21 18:31 36.813031 -116.994504 330 35400ft 482kts
01-Mar-21 18:32 36.931996 -117.071019 330 36207ft 483kts
01-Mar-21 18:33 37.053115 -117.149731 330 36233ft 496kts
01-Mar-21 18:34 37.174876 -117.229078 330 36233ft 495kts
01-Mar-21 18:35 37.295453 -117.312539 323 36234ft 493kts
01-Mar-21 18:36 37.401150 -117.419483 315 36231ft 489kts
01-Mar-21 18:37 37.501505 -117.533983 309 36214ft 486kts
01-Mar-21 18:38 37.585986 -117.665406 303 36215ft 483kts
01-Mar-21 18:39 37.668794 -117.799009 303 36205ft 483kts
01-Mar-21 18:40 37.751411 -117.932035 303 36183ft 483kts
01-Mar-21 18:41 37.834224 -118.065814 303 36180ft 483kts
01-Mar-21 18:42 37.916526 -118.199292 303 36180ft 483kts
01-Mar-21 18:43 37.999055 -118.333698 303 36171ft 483kts
01-Mar-21 18:44 38.081158 -118.467966 303 36156ft 483kts
01-Mar-21 18:45 38.162512 -118.600766 303 35608ft 467kts
01-Mar-21 18:46 38.241515 -118.731142 302 34511ft 463kts
01-Mar-21 18:47 38.320016 -118.861299 302 31955ft 467kts
01-Mar-21 18:48 38.399736 -118.993851 303 28603ft 480kts
01-Mar-21 18:49 38.481717 -119.130655 304 24804ft 493kts
01-Mar-21 18:50 38.559611 -119.274853 300 21552ft 501kts
01-Mar-21 18:51 38.634388 -119.420036 300 18872ft 477kts
01-Mar-21 18:52 38.705380 -119.558224 300 16332ft 451kts
01-Mar-21 18:53 38.768956 -119.682494 299 15549ft 385kts
01-Mar-21 18:54 38.834819 -119.775066 347 14916ft 346kts
01-Mar-21 18:55 38.928483 -119.771773 1 13540ft 332kts
01-Mar-21 18:56 39.016889 -119.770615 358 13009ft 294kts
01-Mar-21 18:57 39.094084 -119.770521 358 13012ft 275kts
01-Mar-21 18:58 39.166052 -119.770333 358 12369ft 248kts
01-Mar-21 18:59 39.233595 -119.770025 356 10894ft 235kts
01-Mar-21 19:00 39.295866 -119.769824 2 8762ft 216kts
01-Mar-21 19:01 39.355040 -119.769611 354 7432ft 209kts
01-Mar-21 19:02 39.408266 -119.769507 355 6204ft 169kts
01-Mar-21 19:03 39.449554 -119.769427 355 5286ft 141kts
01-Mar-21 19:04 39.488576 -119.769314 357 4435ft 138kts
01-Mar-21 19:05 39.507437 -119.769225 359 4418ft 28kts
01-Mar-21 19:06 39.510983 -119.771022 260 4420ft 9kts
01-Mar-21 19:07 39.507441 -119.772949 183 4417ft 9kts

Navigation Log

Ident Type
Flight plan parsing failed, navigation log unavailable